Time;durP1;ratioP1;P1;durP2;ratioP2;P2;SDS_P1;SDS_P2;PMS_P1;PMS_P2;Temp;Humidity;BMP_temperature;BMP_pressure;BME280_temperature;BME280_humidity;BME280_pressure;Samples;Min_cycle;Max_cycle;Signal;HPM_P1;HPM_P2
2023/08/12 00:00:13;;;;;;;7.27;6.57;;;20.70;99.90;;;;;;4996869;28;20550;-70
2023/08/12 00:02:42;;;;;;;7.63;7.03;;;20.70;99.90;;;;;;4992871;28;20446;-70
2023/08/12 00:05:08;;;;;;;6.37;5.87;;;20.70;99.90;;;;;;4995488;28;21133;-70
2023/08/12 00:07:34;;;;;;;7.40;6.77;;;20.70;99.90;;;;;;4994652;28;20931;-70
2023/08/12 00:10:04;;;;;;;7.07;6.57;;;20.60;99.90;;;;;;4995471;28;20450;-70
2023/08/12 00:12:36;;;;;;;7.17;6.57;;;20.50;99.90;;;;;;4994807;28;20886;-70
2023/08/12 00:15:05;;;;;;;7.30;6.37;;;20.50;99.90;;;;;;4993174;28;20446;-70
2023/08/12 00:17:30;;;;;;;6.87;6.27;;;20.50;99.90;;;;;;4995160;28;20525;-70
2023/08/12 00:19:56;;;;;;;7.10;6.50;;;20.50;99.90;;;;;;4994593;28;20546;-70
2023/08/12 00:22:22;;;;;;;6.53;5.93;;;20.50;99.90;;;;;;4993373;28;20717;-70
2023/08/12 00:24:48;;;;;;;7.77;7.17;;;20.40;99.90;;;;;;4994274;28;20230;-69
2023/08/12 00:27:13;;;;;;;7.93;7.30;;;20.50;99.90;;;;;;4995216;28;20442;-70
2023/08/12 00:29:39;;;;;;;6.13;5.73;;;20.30;99.90;;;;;;4993701;28;20219;-69
2023/08/12 00:32:04;;;;;;;8.83;7.70;;;20.30;99.90;;;;;;4999508;28;20183;-70
2023/08/12 00:34:30;;;;;;;7.20;6.50;;;20.30;99.90;;;;;;4993322;28;20184;-70
2023/08/12 00:36:55;;;;;;;7.33;6.63;;;20.30;99.90;;;;;;4997447;28;20183;-69
2023/08/12 00:39:21;;;;;;;8.00;7.30;;;20.30;99.90;;;;;;4994380;28;20211;-70
2023/08/12 00:41:46;;;;;;;7.70;7.00;;;20.30;99.90;;;;;;4994237;28;20199;-70
2023/08/12 00:44:12;;;;;;;6.90;6.30;;;20.30;99.90;;;;;;4993611;28;20192;-70
2023/08/12 00:46:42;;;;;;;7.43;6.70;;;20.30;99.90;;;;;;4991846;28;20692;-69
2023/08/12 00:49:08;;;;;;;7.43;6.83;;;20.20;99.90;;;;;;4993411;28;20576;-70
2023/08/12 00:51:35;;;;;;;7.10;6.40;;;20.20;99.90;;;;;;4994563;28;20521;-72
2023/08/12 00:54:04;;;;;;;15.80;14.50;;;20.20;99.90;;;;;;4991770;28;21010;-70
2023/08/12 00:56:31;;;;;;;8.77;8.00;;;20.10;99.90;;;;;;4994161;28;20446;-70
2023/08/12 00:58:58;;;;;;;8.00;7.30;;;20.00;99.90;;;;;;4993148;28;20983;-71
2023/08/12 01:01:23;;;;;;;7.77;7.17;;;19.90;99.90;;;;;;4990598;28;20476;-70
2023/08/12 01:03:50;;;;;;;8.03;7.33;;;20.00;99.90;;;;;;4992756;28;20430;-70
2023/08/12 01:06:15;;;;;;;8.00;6.30;;;20.00;99.90;;;;;;4992507;28;20601;-70
2023/08/12 01:08:41;;;;;;;6.97;6.47;;;20.00;99.90;;;;;;4991178;28;20542;-72
2023/08/12 01:11:12;;;;;;;7.93;7.30;;;20.00;99.90;;;;;;4994328;28;20669;-71
2023/08/12 01:13:54;;;;;;;8.37;7.70;;;20.00;99.90;;;;;;4994370;28;20183;-70
2023/08/12 01:16:21;;;;;;;8.17;7.43;;;20.00;99.90;;;;;;4990815;28;20504;-70
2023/08/12 01:18:49;;;;;;;7.40;6.70;;;20.00;99.90;;;;;;4993189;28;20520;-70
2023/08/12 01:21:17;;;;;;;8.87;8.17;;;20.00;99.90;;;;;;4993026;28;20505;-70
2023/08/12 01:23:43;;;;;;;7.33;6.83;;;20.00;99.90;;;;;;4994256;28;20957;-70
2023/08/12 01:26:08;;;;;;;6.80;6.20;;;20.00;99.90;;;;;;4992759;28;20439;-70
2023/08/12 01:28:34;;;;;;;6.50;6.00;;;20.10;99.90;;;;;;4991534;28;20946;-70
2023/08/12 01:31:15;;;;;;;7.07;6.37;;;20.00;99.90;;;;;;4993908;28;20200;-70
2023/08/12 01:33:51;;;;;;;7.60;6.90;;;20.00;99.90;;;;;;4991629;28;20266;-70
2023/08/12 01:36:20;;;;;;;6.50;6.00;;;20.00;99.90;;;;;;4992469;28;21014;-70
2023/08/12 01:38:47;;;;;;;7.27;6.63;;;19.90;99.90;;;;;;4992716;28;20462;-70
2023/08/12 01:41:13;;;;;;;7.70;6.63;;;19.90;99.90;;;;;;4993593;28;20843;-70
2023/08/12 01:43:40;;;;;;;7.07;6.50;;;19.90;99.90;;;;;;4993711;28;20489;-70
2023/08/12 01:46:06;;;;;;;6.90;6.37;;;19.90;99.90;;;;;;4991584;28;20970;-70
2023/08/12 01:48:31;;;;;;;8.03;7.37;;;19.90;99.90;;;;;;4990721;28;20439;-70
2023/08/12 01:50:57;;;;;;;7.40;6.80;;;19.90;99.90;;;;;;4991781;28;20219;-70
2023/08/12 01:53:22;;;;;;;7.43;6.83;;;19.90;99.90;;;;;;4992257;28;20210;-70
2023/08/12 01:55:50;;;;;;;7.80;7.10;;;19.90;99.90;;;;;;4991662;28;20183;-70
2023/08/12 01:58:15;;;;;;;7.90;6.17;;;19.90;99.90;;;;;;4992133;28;20190;-70
2023/08/12 02:00:41;;;;;;;9.00;7.50;;;19.90;99.90;;;;;;4992656;28;20474;-70
2023/08/12 02:03:06;;;;;;;8.00;7.30;;;19.90;99.90;;;;;;4992932;28;20186;-70
2023/08/12 02:05:33;;;;;;;7.90;7.30;;;19.90;99.90;;;;;;4993565;28;20190;-70
2023/08/12 02:07:58;;;;;;;9.63;6.90;;;19.90;99.90;;;;;;4991665;28;20230;-70
2023/08/12 02:10:23;;;;;;;8.13;7.47;;;19.90;99.90;;;;;;4992775;28;20826;-70
2023/08/12 02:12:49;;;;;;;8.00;7.30;;;20.00;99.90;;;;;;4992913;28;20175;-70
2023/08/12 02:15:15;;;;;;;6.77;6.17;;;19.90;99.90;;;;;;4992788;28;20179;-70
2023/08/12 02:17:40;;;;;;;7.73;7.13;;;20.00;99.90;;;;;;4990285;28;20184;-70
2023/08/12 02:20:06;;;;;;;7.53;6.93;;;20.00;99.90;;;;;;4990689;28;20744;-70
2023/08/12 02:22:32;;;;;;;7.77;7.07;;;20.10;99.90;;;;;;4991482;28;20179;-70
2023/08/12 02:24:58;;;;;;;7.50;6.90;;;20.20;99.90;;;;;;4992848;28;20430;-70
2023/08/12 02:27:23;;;;;;;7.23;6.63;;;20.30;99.90;;;;;;4991217;28;20182;-70
2023/08/12 02:29:49;;;;;;;8.43;7.40;;;20.40;99.90;;;;;;4990130;28;20211;-70
2023/08/12 02:32:14;;;;;;;8.00;7.33;;;20.40;99.90;;;;;;4991435;28;20183;-70
2023/08/12 02:34:40;;;;;;;7.90;7.23;;;20.30;99.90;;;;;;4993054;28;20262;-70
2023/08/12 02:37:05;;;;;;;9.30;8.40;;;20.20;99.90;;;;;;4989796;28;20538;-70
2023/08/12 02:39:31;;;;;;;8.77;8.07;;;20.20;99.90;;;;;;4990600;28;20200;-70
2023/08/12 02:41:56;;;;;;;8.30;7.60;;;20.20;99.90;;;;;;4990860;28;20562;-70
2023/08/12 02:44:22;;;;;;;9.40;8.47;;;20.20;99.90;;;;;;4991961;28;20270;-70
2023/08/12 02:46:47;;;;;;;8.30;7.60;;;20.10;99.90;;;;;;4991597;28;20182;-70
2023/08/12 02:49:13;;;;;;;8.40;7.80;;;20.10;99.90;;;;;;4990891;28;20211;-70
2023/08/12 02:51:39;;;;;;;8.30;7.50;;;20.20;99.90;;;;;;4990101;28;20655;-70
2023/08/12 02:54:04;;;;;;;8.33;7.50;;;20.20;99.90;;;;;;4990190;28;20568;-70
2023/08/12 02:56:30;;;;;;;8.10;7.40;;;20.20;99.90;;;;;;4991591;28;20180;-70
2023/08/12 02:58:56;;;;;;;7.63;7.03;;;20.20;99.90;;;;;;4989330;28;20290;-70
2023/08/12 03:01:22;;;;;;;8.30;7.60;;;20.20;99.90;;;;;;4991700;28;20208;-70
2023/08/12 03:03:47;;;;;;;8.83;8.10;;;20.30;99.90;;;;;;4991943;28;20184;-70
2023/08/12 03:06:13;;;;;;;8.80;8.00;;;20.30;99.90;;;;;;4991015;28;20967;-70
2023/08/12 03:08:38;;;;;;;9.30;7.97;;;20.30;99.90;;;;;;4998666;28;20179;-70
2023/08/12 03:11:04;;;;;;;7.97;7.13;;;20.40;99.90;;;;;;4989731;28;20227;-70
2023/08/12 03:13:30;;;;;;;10.80;8.40;;;20.40;99.90;;;;;;4992307;28;20640;-70
2023/08/12 03:15:55;;;;;;;9.40;7.70;;;20.30;99.90;;;;;;4991091;28;20187;-70
2023/08/12 03:18:21;;;;;;;8.87;8.10;;;20.40;99.90;;;;;;4989210;28;20191;-70
2023/08/12 03:20:46;;;;;;;8.47;7.77;;;20.40;99.90;;;;;;4989731;28;20231;-70
2023/08/12 03:23:12;;;;;;;8.03;7.33;;;20.40;99.90;;;;;;4992080;28;20203;-70
2023/08/12 03:25:38;;;;;;;8.53;7.83;;;20.40;99.90;;;;;;4991816;28;20242;-70
2023/08/12 03:28:03;;;;;;;9.33;8.50;;;20.40;99.90;;;;;;4989883;28;20183;-70
2023/08/12 03:30:29;;;;;;;8.03;7.47;;;20.40;99.90;;;;;;4989451;28;20218;-70
2023/08/12 03:32:54;;;;;;;8.10;7.50;;;20.50;99.90;;;;;;4990457;28;20183;-70
2023/08/12 03:35:20;;;;;;;8.73;8.00;;;20.40;99.90;;;;;;4991542;28;20183;-70
2023/08/12 03:37:45;;;;;;;7.97;7.40;;;20.40;99.90;;;;;;4992056;28;20557;-70
2023/08/12 03:40:11;;;;;;;8.50;7.90;;;20.50;99.90;;;;;;4985859;28;20203;-70
2023/08/12 03:42:37;;;;;;;8.17;7.57;;;20.50;99.90;;;;;;5000275;28;20241;-70
2023/08/12 03:45:02;;;;;;;8.90;8.20;;;20.50;99.90;;;;;;4991019;28;20219;-70
2023/08/12 03:47:28;;;;;;;8.47;7.50;;;20.60;99.90;;;;;;4990725;28;20254;-70
2023/08/12 03:49:54;;;;;;;8.20;7.50;;;20.60;99.90;;;;;;4991765;28;20188;-70
2023/08/12 03:52:19;;;;;;;7.70;7.10;;;20.60;99.90;;;;;;4994226;28;20231;-70
2023/08/12 03:54:45;;;;;;;8.20;7.50;;;20.60;99.90;;;;;;5001337;28;20439;-70
2023/08/12 03:57:11;;;;;;;7.23;6.63;;;20.60;99.90;;;;;;4996212;28;20175;-70
2023/08/12 03:59:36;;;;;;;7.77;7.17;;;20.60;99.90;;;;;;4982930;28;20204;-70
2023/08/12 04:02:03;;;;;;;8.70;8.00;;;20.60;99.90;;;;;;4990159;28;20450;-70
2023/08/12 04:04:29;;;;;;;8.50;7.70;;;20.60;99.90;;;;;;4996291;28;20172;-70
2023/08/12 04:06:55;;;;;;;8.20;7.50;;;20.60;99.90;;;;;;4983864;28;20443;-70
2023/08/12 04:09:20;;;;;;;7.63;7.13;;;20.60;99.90;;;;;;4989763;28;20210;-70
2023/08/12 04:11:46;;;;;;;7.43;6.93;;;20.60;99.90;;;;;;4990694;28;20182;-70
2023/08/12 04:14:15;;;;;;;7.90;7.40;;;20.60;99.90;;;;;;5000428;28;20187;-70
2023/08/12 04:16:41;;;;;;;8.00;7.40;;;20.70;99.90;;;;;;4990999;28;20191;-70
2023/08/12 04:19:06;;;;;;;7.87;7.27;;;20.70;99.90;;;;;;4991398;28;20441;-70
2023/08/12 04:21:32;;;;;;;7.33;6.83;;;20.70;99.90;;;;;;4991179;28;20231;-70
2023/08/12 04:23:57;;;;;;;8.23;7.60;;;20.80;99.90;;;;;;5005536;28;20278;-70
2023/08/12 04:26:23;;;;;;;8.93;8.20;;;20.70;99.90;;;;;;5007476;28;20526;-70
2023/08/12 04:28:48;;;;;;;8.30;7.60;;;20.70;99.90;;;;;;5001030;28;20275;-70
2023/08/12 04:31:14;;;;;;;7.87;7.27;;;20.70;99.90;;;;;;4993932;28;20646;-70
2023/08/12 04:33:40;;;;;;;8.37;7.67;;;20.70;99.90;;;;;;4992508;28;20190;-70
2023/08/12 04:36:05;;;;;;;7.03;6.40;;;20.70;99.90;;;;;;4998820;28;20187;-70
2023/08/12 04:38:31;;;;;;;7.60;7.00;;;20.60;99.90;;;;;;4999404;28;20623;-70
2023/08/12 04:40:57;;;;;;;7.87;7.27;;;20.60;99.90;;;;;;4992148;28;20489;-70
2023/08/12 04:43:22;;;;;;;9.43;8.70;;;20.60;99.90;;;;;;4992245;28;20184;-70
2023/08/12 04:45:48;;;;;;;9.13;7.97;;;20.50;99.90;;;;;;5001166;28;20267;-70
2023/08/12 04:48:14;;;;;;;8.40;7.80;;;20.50;99.90;;;;;;4991531;28;20236;-70
2023/08/12 04:50:41;;;;;;;9.40;8.23;;;20.60;99.90;;;;;;4995468;28;20571;-70
2023/08/12 04:53:07;;;;;;;7.97;7.27;;;20.50;99.90;;;;;;4995600;28;20517;-70
2023/08/12 04:55:36;;;;;;;7.97;7.27;;;20.40;99.90;;;;;;5001097;28;20921;-70
2023/08/12 04:58:02;;;;;;;8.83;8.10;;;20.20;99.90;;;;;;5006836;28;20183;-70
2023/08/12 05:00:28;;;;;;;7.70;7.00;;;20.20;99.90;;;;;;5003929;28;20466;-70
2023/08/12 05:02:53;;;;;;;9.43;8.57;;;20.30;99.90;;;;;;4991020;28;20438;-70
2023/08/12 05:05:19;;;;;;;9.20;7.87;;;20.10;99.90;;;;;;4994438;28;20192;-72
2023/08/12 05:07:48;;;;;;;8.40;7.70;;;20.20;99.90;;;;;;4994269;28;20246;-70
2023/08/12 05:10:17;;;;;;;8.33;7.57;;;20.30;99.90;;;;;;4992499;28;20470;-70
2023/08/12 05:12:43;;;;;;;9.40;8.60;;;20.40;99.90;;;;;;4995209;28;20510;-70
2023/08/12 05:15:10;;;;;;;11.00;8.00;;;20.30;99.90;;;;;;5000182;28;20433;-70
2023/08/12 05:17:35;;;;;;;8.33;7.73;;;20.20;99.90;;;;;;5001956;28;20499;-70
2023/08/12 05:20:01;;;;;;;9.53;7.80;;;20.30;99.90;;;;;;4991505;28;20469;-70
2023/08/12 05:22:26;;;;;;;8.13;7.53;;;20.40;99.90;;;;;;4995131;28;20208;-70
2023/08/12 05:24:52;;;;;;;9.20;8.40;;;20.50;99.90;;;;;;4994013;28;20191;-70
2023/08/12 05:27:17;;;;;;;8.77;7.93;;;20.60;99.90;;;;;;5005916;28;20281;-70
2023/08/12 05:29:43;;;;;;;9.93;8.97;;;20.70;99.90;;;;;;5020586;23;20692;-69
2023/08/12 05:32:08;;;;;;;8.97;8.27;;;20.80;99.90;;;;;;5034274;28;20697;-69
2023/08/12 05:34:34;;;;;;;9.20;8.30;;;20.90;99.90;;;;;;5017665;28;20220;-69
2023/08/12 05:37:00;;;;;;;10.13;8.80;;;21.00;99.90;;;;;;5013912;28;20179;-69
2023/08/12 05:39:25;;;;;;;9.17;8.40;;;21.00;99.90;;;;;;5021586;28;20539;-69
2023/08/12 05:41:52;;;;;;;9.77;9.07;;;21.10;99.90;;;;;;5014264;28;20264;-69
2023/08/12 05:44:17;;;;;;;10.33;9.43;;;21.00;99.90;;;;;;5006764;28;20178;-70
2023/08/12 05:46:43;;;;;;;8.70;7.90;;;21.00;99.90;;;;;;4993558;28;20963;-69
2023/08/12 05:49:08;;;;;;;8.10;7.50;;;21.10;99.90;;;;;;4993266;28;20278;-69
2023/08/12 05:51:34;;;;;;;9.30;8.47;;;21.20;99.90;;;;;;4992828;28;20645;-69
2023/08/12 05:53:59;;;;;;;8.87;7.90;;;21.30;99.90;;;;;;4994621;28;20551;-69
2023/08/12 05:56:25;;;;;;;9.00;8.20;;;21.40;99.90;;;;;;4995215;28;20191;-69
2023/08/12 05:58:50;;;;;;;8.40;7.80;;;21.40;99.90;;;;;;5006939;28;20183;-69
2023/08/12 06:01:16;;;;;;;14.90;13.63;;;21.40;99.90;;;;;;5004821;28;20297;-69
2023/08/12 06:03:42;;;;;;;10.03;9.23;;;21.30;99.90;;;;;;5013949;28;20178;-69
2023/08/12 06:06:08;;;;;;;8.30;7.70;;;21.10;99.90;;;;;;4986506;28;20246;-69
2023/08/12 06:08:33;;;;;;;11.40;7.70;;;20.90;99.90;;;;;;4997115;28;20641;-69
2023/08/12 06:10:59;;;;;;;9.57;8.87;;;20.90;99.90;;;;;;5001935;28;20217;-69
2023/08/12 06:13:24;;;;;;;9.47;8.67;;;21.00;99.90;;;;;;4992035;28;20183;-69
2023/08/12 06:15:50;;;;;;;8.87;8.17;;;21.10;99.90;;;;;;4993417;28;20183;-69
2023/08/12 06:18:15;;;;;;;9.40;8.50;;;21.30;99.90;;;;;;4992572;28;20187;-69
2023/08/12 06:20:41;;;;;;;8.50;7.83;;;21.50;99.90;;;;;;4992491;28;20203;-69
2023/08/12 06:23:06;;;;;;;11.33;10.23;;;21.70;99.90;;;;;;4993128;28;20624;-69
2023/08/12 06:25:32;;;;;;;11.43;10.43;;;21.70;99.90;;;;;;4993164;28;20179;-69
2023/08/12 06:27:58;;;;;;;9.00;8.20;;;21.50;99.90;;;;;;5006208;28;20266;-69
2023/08/12 06:30:24;;;;;;;10.30;9.23;;;21.40;99.90;;;;;;4998486;28;20613;-69
2023/08/12 06:32:49;;;;;;;8.97;8.27;;;21.40;99.90;;;;;;5000617;28;20434;-69
2023/08/12 06:35:15;;;;;;;9.10;8.13;;;21.50;99.90;;;;;;5003909;28;20172;-69
2023/08/12 06:37:41;;;;;;;9.13;8.30;;;21.60;99.90;;;;;;4991363;28;20187;-69
2023/08/12 06:40:07;;;;;;;9.37;8.40;;;21.80;99.90;;;;;;4990581;28;20289;-69
2023/08/12 06:42:33;;;;;;;8.80;8.20;;;22.10;99.90;;;;;;5009805;28;20501;-69
2023/08/12 06:45:00;;;;;;;9.60;8.50;;;22.30;99.90;;;;;;5001906;28;20506;-69
2023/08/12 06:47:27;;;;;;;9.37;8.43;;;22.70;99.90;;;;;;5000312;28;20174;-69
2023/08/12 06:49:53;;;;;;;8.67;7.93;;;23.20;99.90;;;;;;5007523;28;20469;-70
2023/08/12 06:52:18;;;;;;;10.00;9.00;;;23.80;99.90;;;;;;5006752;28;20970;-70
2023/08/12 06:54:44;;;;;;;8.33;7.63;;;24.40;99.90;;;;;;5007117;28;20454;-69
2023/08/12 06:57:11;;;;;;;10.47;9.43;;;24.90;99.90;;;;;;4985986;28;20681;-69
2023/08/12 06:59:37;;;;;;;8.07;7.33;;;25.10;99.90;;;;;;4988982;28;20195;-69
2023/08/12 07:02:03;;;;;;;8.57;7.77;;;24.90;99.90;;;;;;4994427;28;20537;-69
2023/08/12 07:04:28;;;;;;;8.43;7.63;;;24.70;99.90;;;;;;5008509;28;20225;-70
2023/08/12 07:06:54;;;;;;;7.90;7.20;;;24.70;99.90;;;;;;5012571;28;20188;-70
2023/08/12 07:09:19;;;;;;;8.87;8.07;;;24.90;99.90;;;;;;5012009;28;20179;-70
2023/08/12 07:11:45;;;;;;;7.80;7.13;;;25.00;99.90;;;;;;4997928;28;20267;-70
2023/08/12 07:14:10;;;;;;;7.70;7.00;;;25.30;99.90;;;;;;4992373;28;20180;-70
2023/08/12 07:16:36;;;;;;;7.83;7.20;;;25.70;99.90;;;;;;4988827;28;20179;-70
2023/08/12 07:19:01;;;;;;;7.77;7.13;;;25.90;99.90;;;;;;5011812;28;20253;-70
2023/08/12 07:21:27;;;;;;;8.70;7.57;;;26.00;99.90;;;;;;5003630;28;20261;-70
2023/08/12 07:23:52;;;;;;;8.43;7.60;;;26.40;99.90;;;;;;4995067;28;20183;-70
2023/08/12 07:26:18;;;;;;;7.10;6.50;;;26.90;99.90;;;;;;4993024;28;20226;-70
2023/08/12 07:28:43;;;;;;;7.30;6.70;;;27.30;99.90;;;;;;4991234;28;20183;-70
2023/08/12 07:31:09;;;;;;;7.07;6.47;;;27.40;99.90;;;;;;4989994;28;20191;-70
2023/08/12 07:33:35;;;;;;;8.03;7.23;;;27.60;99.90;;;;;;4994062;28;20244;-70
2023/08/12 07:36:01;;;;;;;10.20;7.30;;;27.80;99.90;;;;;;4995762;28;20180;-71
2023/08/12 07:38:27;;;;;;;6.67;6.07;;;28.00;99.90;;;;;;4988962;28;20811;-72
2023/08/12 07:40:52;;;;;;;7.00;6.50;;;28.50;99.90;;;;;;4991137;28;20474;-71
2023/08/12 07:43:18;;;;;;;7.17;6.60;;;28.70;99.90;;;;;;4986365;28;20234;-71
2023/08/12 07:45:43;;;;;;;6.20;5.80;;;29.10;99.90;;;;;;4991104;28;20207;-71
2023/08/12 07:48:09;;;;;;;7.57;6.93;;;29.40;99.90;;;;;;4991098;28;20183;-71
2023/08/12 07:50:35;;;;;;;7.77;7.07;;;29.80;99.90;;;;;;4990293;28;20665;-70
2023/08/12 07:53:00;;;;;;;7.27;6.60;;;30.20;99.90;;;;;;4987940;28;20266;-71
2023/08/12 07:55:27;;;;;;;6.70;6.20;;;30.50;99.90;;;;;;4991280;28;20263;-71
2023/08/12 07:57:52;;;;;;;6.20;5.80;;;30.80;99.90;;;;;;4991822;28;20222;-71
2023/08/12 08:00:19;;;;;;;7.37;6.77;;;31.10;99.90;;;;;;4983082;28;20467;-71
2023/08/12 08:02:44;;;;;;;6.70;6.07;;;31.20;99.90;;;;;;4992431;28;20263;-71
2023/08/12 08:05:10;;;;;;;7.53;6.80;;;31.40;99.90;;;;;;4992457;28;20529;-71
2023/08/12 08:07:35;;;;;;;7.03;6.33;;;31.90;99.90;;;;;;4992695;28;20175;-71
2023/08/12 08:10:01;;;;;;;7.07;6.63;;;32.60;98.30;;;;;;4991705;28;20199;-70
2023/08/12 08:12:26;;;;;;;6.87;6.37;;;32.90;95.30;;;;;;4991859;28;20187;-71
2023/08/12 08:14:52;;;;;;;6.70;6.23;;;32.80;94.60;;;;;;4992359;28;20313;-71
2023/08/12 08:17:17;;;;;;;5.70;5.30;;;32.80;94.60;;;;;;4993558;28;20180;-71
2023/08/12 08:19:43;;;;;;;6.13;5.80;;;32.90;93.10;;;;;;4995462;28;20227;-70
2023/08/12 08:22:08;;;;;;;8.03;6.73;;;32.90;92.30;;;;;;4996184;28;20265;-70
2023/08/12 08:24:34;;;;;;;6.40;6.00;;;32.30;92.40;;;;;;4996399;28;20546;-70
2023/08/12 08:26:59;;;;;;;6.20;5.70;;;31.90;92.60;;;;;;4996145;28;20183;-71
2023/08/12 08:29:25;;;;;;;5.93;5.20;;;31.60;92.80;;;;;;4994462;28;20218;-71
2023/08/12 08:31:51;;;;;;;6.97;5.47;;;31.80;92.90;;;;;;4995651;28;20183;-71
2023/08/12 08:34:16;;;;;;;5.97;5.37;;;32.00;92.40;;;;;;4995968;28;20171;-70
2023/08/12 08:36:42;;;;;;;6.57;6.17;;;32.60;90.60;;;;;;4996255;28;20182;-71
2023/08/12 08:39:08;;;;;;;6.43;5.83;;;32.60;88.50;;;;;;4993925;28;20222;-70
2023/08/12 08:41:37;;;;;;;6.07;5.57;;;32.90;88.70;;;;;;4996003;28;21141;-70
2023/08/12 08:44:09;;;;;;;6.10;5.60;;;32.60;88.20;;;;;;4992160;28;20219;-71
2023/08/12 08:46:35;;;;;;;5.07;4.67;;;31.90;87.40;;;;;;4995733;28;20421;-71
2023/08/12 08:49:00;;;;;;;5.57;4.90;;;31.50;89.20;;;;;;4994883;28;20442;-70
2023/08/12 08:51:29;;;;;;;5.33;4.97;;;31.60;90.00;;;;;;4994552;28;20446;-71
2023/08/12 08:53:55;;;;;;;7.00;6.50;;;31.90;89.20;;;;;;4987716;28;20199;-70
2023/08/12 08:56:21;;;;;;;7.50;5.13;;;32.30;88.60;;;;;;4995670;28;20513;-70
2023/08/12 08:58:47;;;;;;;4.60;4.30;;;32.90;83.90;;;;;;4994866;28;20473;-71
2023/08/12 09:01:14;;;;;;;5.53;4.80;;;33.20;81.00;;;;;;4995522;28;20454;-71
2023/08/12 09:03:42;;;;;;;5.83;5.33;;;32.70;78.90;;;;;;4994806;28;20518;-70
2023/08/12 09:06:08;;;;;;;4.90;4.40;;;32.20;79.70;;;;;;4995589;28;20426;-70
2023/08/12 09:08:35;;;;;;;4.87;4.47;;;31.80;79.40;;;;;;4994814;28;20429;-71
2023/08/12 09:11:02;;;;;;;3.90;3.70;;;31.70;80.00;;;;;;4995457;28;20493;-71
2023/08/12 09:13:29;;;;;;;4.73;4.33;;;32.10;79.60;;;;;;4995337;28;20911;-71
2023/08/12 09:15:54;;;;;;;4.17;3.97;;;32.60;77.20;;;;;;4995273;28;20426;-71
2023/08/12 09:18:24;;;;;;;5.53;4.10;;;32.80;75.10;;;;;;4986341;28;20462;-70
2023/08/12 09:20:50;;;;;;;4.10;3.83;;;32.90;73.60;;;;;;4994019;28;20262;-70
2023/08/12 09:23:17;;;;;;;4.53;4.23;;;32.20;74.90;;;;;;4995065;28;20426;-70
2023/08/12 09:25:46;;;;;;;5.23;4.83;;;32.20;75.40;;;;;;4995191;28;20489;-70
2023/08/12 09:28:12;;;;;;;3.97;3.77;;;32.40;74.60;;;;;;4994177;28;20429;-70
2023/08/12 09:30:38;;;;;;;5.70;3.53;;;32.70;74.20;;;;;;4994886;28;20461;-70
2023/08/12 09:33:07;;;;;;;10.17;4.73;;;33.20;74.20;;;;;;4995100;28;20422;-70
2023/08/12 09:35:37;;;;;;;4.57;4.00;;;32.70;72.10;;;;;;4990956;28;20896;-70
2023/08/12 09:38:05;;;;;;;4.03;3.83;;;32.10;73.70;;;;;;4980287;28;20447;-71
2023/08/12 09:40:32;;;;;;;4.53;4.23;;;31.90;74.00;;;;;;4994085;28;20971;-71
2023/08/12 09:42:58;;;;;;;4.27;3.90;;;32.70;73.70;;;;;;4994867;28;20426;-70
2023/08/12 09:45:24;;;;;;;4.10;3.80;;;33.60;71.50;;;;;;4994808;28;20900;-71
2023/08/12 09:47:50;;;;;;;4.37;4.07;;;34.30;70.50;;;;;;4994690;28;20186;-70
2023/08/12 09:50:16;;;;;;;4.70;4.40;;;34.20;67.30;;;;;;4993815;28;20446;-70
2023/08/12 09:52:41;;;;;;;4.07;3.77;;;33.20;69.30;;;;;;4984858;28;20191;-70
2023/08/12 09:55:08;;;;;;;4.50;4.20;;;32.40;71.70;;;;;;4986110;28;20245;-70
2023/08/12 09:57:39;;;;;;;5.03;4.63;;;31.50;75.10;;;;;;4994450;28;20195;-69
2023/08/12 10:00:11;;;;;;;5.07;4.77;;;31.00;78.40;;;;;;4993589;28;20485;-70
2023/08/12 10:02:38;;;;;;;5.10;4.70;;;30.80;79.70;;;;;;4991211;28;20472;-70
2023/08/12 10:05:04;;;;;;;5.40;4.20;;;30.70;83.00;;;;;;4986501;28;20438;-69
2023/08/12 10:07:30;;;;;;;7.83;4.20;;;30.70;83.80;;;;;;4986082;28;20426;-69
2023/08/12 10:09:56;;;;;;;6.80;4.77;;;30.80;85.80;;;;;;4993426;28;20454;-69
2023/08/12 10:12:22;;;;;;;4.67;4.27;;;30.90;86.70;;;;;;4994353;28;20230;-69
2023/08/12 10:14:47;;;;;;;8.20;5.20;;;30.90;85.60;;;;;;4994057;28;20222;-69
2023/08/12 10:17:14;;;;;;;4.20;3.90;;;31.00;86.70;;;;;;4993389;28;20192;-72
2023/08/12 10:19:44;;;;;;;5.40;5.00;;;31.00;84.20;;;;;;4984463;28;20203;-70
2023/08/12 10:22:10;;;;;;;5.20;4.80;;;31.10;84.60;;;;;;4994034;28;20834;-70
2023/08/12 10:24:37;;;;;;;5.73;5.20;;;31.30;83.80;;;;;;4994053;28;20456;-70
2023/08/12 10:27:03;;;;;;;6.37;5.73;;;31.70;83.30;;;;;;4994003;28;20427;-70
2023/08/12 10:29:30;;;;;;;4.90;4.50;;;31.80;81.90;;;;;;4992905;28;20476;-70
2023/08/12 10:31:56;;;;;;;4.70;4.40;;;31.80;82.80;;;;;;4993857;28;20435;-70
2023/08/12 10:34:24;;;;;;;4.63;4.33;;;32.40;80.60;;;;;;4985771;28;20474;-70
2023/08/12 10:37:02;;;;;;;5.40;4.90;;;32.50;78.30;;;;;;4992680;28;20762;-70
2023/08/12 10:39:28;;;;;;;6.53;5.90;;;32.40;78.70;;;;;;4992315;28;20937;-70
2023/08/12 10:41:55;;;;;;;5.17;4.67;;;32.70;79.60;;;;;;4993482;28;20955;-70
2023/08/12 10:44:24;;;;;;;5.80;5.30;;;32.60;78.60;;;;;;4993597;28;20510;-70
2023/08/12 10:46:51;;;;;;;5.60;5.10;;;32.70;79.00;;;;;;4993557;28;20817;-70
2023/08/12 10:49:20;;;;;;;4.77;4.47;;;32.30;78.50;;;;;;4986227;28;20827;-70
2023/08/12 10:51:54;;;;;;;5.50;5.00;;;32.40;80.00;;;;;;4991852;28;20435;-70
2023/08/12 10:54:26;;;;;;;5.20;4.70;;;33.00;77.10;;;;;;4993492;28;21149;-70
2023/08/12 10:57:14;;;;;;;4.83;4.43;;;33.20;76.70;;;;;;4993429;28;20430;-70
2023/08/12 10:59:46;;;;;;;5.47;5.07;;;33.70;74.40;;;;;;4992587;28;20443;-70
2023/08/12 11:02:32;;;;;;;5.50;5.10;;;34.80;71.70;;;;;;4993257;28;20807;-70
2023/08/12 11:05:09;;;;;;;4.83;4.43;;;34.70;68.70;;;;;;4992562;28;20504;-70
2023/08/12 11:07:40;;;;;;;5.27;4.33;;;34.40;67.60;;;;;;4993070;28;20493;-70
2023/08/12 11:10:19;;;;;;;5.53;4.20;;;33.70;68.00;;;;;;4992592;28;20449;-70
2023/08/12 11:12:58;;;;;;;4.10;3.80;;;33.00;69.10;;;;;;4993222;28;20418;-70
2023/08/12 11:15:47;;;;;;;4.93;4.23;;;32.60;70.90;;;;;;4993184;28;20423;-70
2023/08/12 11:18:20;;;;;;;4.47;4.07;;;33.30;70.30;;;;;;4992462;28;20462;-70
2023/08/12 11:20:48;;;;;;;5.17;4.67;;;35.20;65.50;;;;;;4992918;28;20462;-70
2023/08/12 11:23:14;;;;;;;4.60;4.20;;;36.40;62.50;;;;;;4986210;28;20505;-70
2023/08/12 11:25:42;;;;;;;4.80;4.47;;;36.90;59.70;;;;;;4982026;28;20502;-70
2023/08/12 11:28:08;;;;;;;4.60;4.30;;;35.80;60.30;;;;;;4986056;28;20558;-70
2023/08/12 11:30:34;;;;;;;6.23;4.50;;;35.90;61.00;;;;;;5025828;23;20588;-71
2023/08/12 11:33:01;;;;;;;5.30;4.90;;;36.30;60.70;;;;;;5012444;28;20171;-71
2023/08/12 11:35:27;;;;;;;4.27;3.97;;;37.00;59.70;;;;;;5012458;28;20497;-71
2023/08/12 11:37:55;;;;;;;6.30;4.67;;;36.40;59.60;;;;;;5011864;28;20918;-71
2023/08/12 11:40:22;;;;;;;4.83;4.50;;;36.40;60.30;;;;;;5000822;28;20208;-71
2023/08/12 11:42:49;;;;;;;4.73;4.30;;;36.80;58.40;;;;;;4992842;28;20438;-71
2023/08/12 11:45:19;;;;;;;5.30;4.70;;;37.10;57.80;;;;;;4992734;28;20790;-71
2023/08/12 11:47:47;;;;;;;4.53;4.13;;;37.50;57.30;;;;;;4992766;28;20970;-72
2023/08/12 11:50:13;;;;;;;6.77;4.87;;;38.00;56.20;;;;;;4990238;28;20522;-71
2023/08/12 11:52:39;;;;;;;5.77;5.20;;;38.30;54.70;;;;;;4988282;28;20999;-71
2023/08/12 11:55:06;;;;;;;6.90;5.20;;;38.70;54.50;;;;;;4992471;28;20645;-72
2023/08/12 11:57:34;;;;;;;4.97;4.50;;;38.90;53.70;;;;;;4992530;28;20451;-72
2023/08/12 12:00:13;;;;;;;5.40;4.90;;;38.70;53.00;;;;;;4991828;28;20443;-72
2023/08/12 12:02:41;;;;;;;4.60;4.20;;;38.00;53.30;;;;;;4992545;28;20426;-71
2023/08/12 12:05:11;;;;;;;4.50;4.20;;;37.50;53.60;;;;;;4991797;28;20438;-71
2023/08/12 12:07:37;;;;;;;4.90;4.53;;;36.40;54.30;;;;;;4992330;28;20430;-71
2023/08/12 12:10:02;;;;;;;5.10;4.60;;;34.90;57.10;;;;;;4991845;28;20434;-71
2023/08/12 12:12:28;;;;;;;6.80;4.53;;;33.90;59.10;;;;;;4992437;28;20860;-71
2023/08/12 12:14:55;;;;;;;5.93;5.53;;;32.70;63.20;;;;;;4991191;28;20203;-70
2023/08/12 12:17:22;;;;;;;5.87;5.37;;;31.90;69.20;;;;;;4992422;28;20176;-71
2023/08/12 12:19:55;;;;;;;15.17;9.73;;;31.40;85.60;;;;;;4991776;28;20445;-70
2023/08/12 12:22:29;;;;;;;8.70;7.90;;;30.50;99.90;;;;;;4991216;28;20462;-69
2023/08/12 12:24:59;;;;;;;7.67;7.00;;;29.00;99.90;;;;;;4984276;28;20469;-70
2023/08/12 12:27:24;;;;;;;8.07;7.30;;;27.50;99.90;;;;;;4992301;28;20431;-70
2023/08/12 12:29:50;;;;;;;8.10;7.33;;;26.40;99.90;;;;;;4991395;28;20472;-71
2023/08/12 12:32:19;;;;;;;9.23;7.67;;;25.90;99.90;;;;;;4992297;28;20171;-70
2023/08/12 12:34:45;;;;;;;8.70;7.80;;;25.50;99.90;;;;;;4992303;28;20541;-71
2023/08/12 12:37:10;;;;;;;8.60;7.83;;;25.20;99.90;;;;;;4992432;28;20422;-70
2023/08/12 12:39:36;;;;;;;9.70;8.77;;;25.10;99.90;;;;;;4990570;28;20227;-72
2023/08/12 12:42:01;;;;;;;8.27;7.57;;;25.00;99.90;;;;;;4992100;28;20207;-73